This is the latest recevied weather packets stored in our database for station/object CE4TQY-10. If no packets are shown the sender has not sent any weather packets the latest 10 day(s).
| Time | Temp. | Humidity | Pressure | Rain* | Wind** | Luminosity | Snow |
|---|---|---|---|---|---|---|---|
| 1777773756 | 15.56° C | 54% | 1019.9 hPa | - | - | - | - |
| 1777772857 | 15° C | 53% | 1019.9 hPa | - | - | - | - |
| 1777768350 | 16.67° C | 56% | 1020.1 hPa | - | - | - | - |
| 1777767449 | 18.33° C | 50% | 1020.3 hPa | - | - | - | - |
| 1777764747 | 17.22° C | 55% | 1019.5 hPa | - | - | - | - |
| 1777755738 | 22.78° C | 37% | 1018 hPa | - | - | - | - |
| 1777749430 | 23.89° C | 35% | 1017.9 hPa | - | - | - | - |
| 1777744926 | 22.78° C | 38% | 1018.1 hPa | - | - | - | - |
| 1777739520 | 21.11° C | 43% | 1019 hPa | - | - | - | - |
| 1777738619 | 21.11° C | 44% | 1019.3 hPa | - | - | - | - |
| 1777737718 | 25° C | 39% | 1019.6 hPa | - | - | - | - |
| 1777736816 | 25.56° C | 39% | 1019.7 hPa | - | - | - | - |
| 1777735915 | 26.11° C | 38% | 1020 hPa | - | - | - | - |
| 1777735014 | 27.22° C | 37% | 1020 hPa | - | - | - | - |
| 1777734113 | 24.44° C | 41% | 1020.1 hPa | - | - | - | - |
| 1777733212 | 23.33° C | 43% | 1020.3 hPa | - | - | - | - |
| 1777732311 | 24.44° C | 42% | 1020.5 hPa | - | - | - | - |
| 1777731411 | 18.89° C | 55% | 1020.6 hPa | - | - | - | - |
| 1777730510 | 17.78° C | 57% | 1020.6 hPa | - | - | - | - |
| 1777728707 | 16.11° C | 57% | 1020.6 hPa | - | - | - | - |
| 1777727806 | 17.78° C | 57% | 1020.8 hPa | - | - | - | - |
| 1777726906 | 15.56° C | 62% | 1020.9 hPa | - | - | - | - |
| 1777726005 | 16.11° C | 61% | 1020.9 hPa | - | - | - | - |
| 1777725104 | 13.89° C | 64% | 1020.8 hPa | - | - | - | - |
| 1777724203 | 14.44° C | 62% | 1020.8 hPa | - | - | - | - |
* Rain since midnight (hover to see other rain measurements)
** Current wind speed in m/s (hover to see current wind gust speed)